OCN1298 EDDM-LGSK
Flight info
| Callsign | OCN1298 |
|---|---|
| Flight time | 1h 56m |
| Altitude | 37000 |
| Route | ROTAX4E ROTAX L603 LATLO DCT OBEDI DCT KLAGY DCT MAGAM DCT MEDUX UM867 KOGAT DCT ERANA UL737 TSL |
| Aircraft | A320/M-SDE3FGHIRWY/LB1 |
Departure
| Time | 2026-05-08 12:34 |
|---|---|
| Airport | Munich Airport (EDDM) |
Arrival
| Time | 2026-05-08 14:31 |
|---|---|
| Airport | Skiathos Island National Airport (LGSK) |
| Time | Latitude | Longitude | Altitude | Speed | Heading |
|---|---|---|---|---|---|
| 2026-05-08 11:45 | 48.35054 | 11.80601 | 1486 ft | 0 kts | 173° |
| 2026-05-08 11:46 | 48.35057 | 11.80600 | 1469 ft | 0 kts | 173° |
| 2026-05-08 12:19 | 48.35058 | 11.80600 | 1485 ft | 1 kts | 173° |
| 2026-05-08 12:19 | 48.35073 | 11.80598 | 1472 ft | 3 kts | 173° |
| 2026-05-08 12:20 | 48.35093 | 11.80594 | 1479 ft | 3 kts | 173° |
| 2026-05-08 12:20 | 48.35113 | 11.80591 | 1483 ft | 3 kts | 173° |
| 2026-05-08 12:20 | 48.35133 | 11.80588 | 1473 ft | 3 kts | 186° |
| 2026-05-08 12:20 | 48.35152 | 11.80595 | 1475 ft | 3 kts | 210° |
| 2026-05-08 12:21 | 48.35166 | 11.80612 | 1479 ft | 3 kts | 239° |
| 2026-05-08 12:21 | 48.35173 | 11.80635 | 1476 ft | 1 kts | 263° |
| 2026-05-08 12:21 | 48.35174 | 11.80654 | 1478 ft | 2 kts | 263° |
| 2026-05-08 12:21 | 48.35175 | 11.80664 | 1477 ft | 0 kts | 263° |
| 2026-05-08 12:23 | 48.35175 | 11.80665 | 1485 ft | 0 kts | 262° |
| 2026-05-08 12:24 | 48.35175 | 11.80667 | 1481 ft | 0 kts | 256° |
| 2026-05-08 12:24 | 48.35174 | 11.80653 | 1485 ft | 6 kts | 262° |
| 2026-05-08 12:24 | 48.35170 | 11.80596 | 1476 ft | 6 kts | 264° |
| 2026-05-08 12:24 | 48.35160 | 11.80466 | 1479 ft | 15 kts | 263° |
| 2026-05-08 12:25 | 48.35148 | 11.80318 | 1485 ft | 13 kts | 264° |
| 2026-05-08 12:25 | 48.35138 | 11.80181 | 1476 ft | 12 kts | 263° |
| 2026-05-08 12:25 | 48.35128 | 11.80050 | 1478 ft | 16 kts | 263° |
| 2026-05-08 12:25 | 48.35116 | 11.79894 | 1485 ft | 14 kts | 263° |
| 2026-05-08 12:26 | 48.35105 | 11.79758 | 1485 ft | 12 kts | 263° |
| 2026-05-08 12:26 | 48.35096 | 11.79633 | 1481 ft | 11 kts | 264° |
| 2026-05-08 12:26 | 48.35094 | 11.79611 | 1483 ft | 9 kts | 264° |
| 2026-05-08 12:27 | 48.35093 | 11.79595 | 1500 ft | 7 kts | 264° |
| 2026-05-08 12:27 | 48.35066 | 11.79533 | 1479 ft | 9 kts | 213° |
| 2026-05-08 12:27 | 48.35003 | 11.79533 | 1482 ft | 13 kts | 174° |
| 2026-05-08 12:27 | 48.34909 | 11.79548 | 1473 ft | 13 kts | 173° |
| 2026-05-08 12:28 | 48.34847 | 11.79559 | 1474 ft | 13 kts | 174° |
| 2026-05-08 12:28 | 48.34786 | 11.79464 | 1482 ft | 14 kts | 263° |
| 2026-05-08 12:28 | 48.34770 | 11.79278 | 1482 ft | 21 kts | 263° |
| 2026-05-08 12:28 | 48.34753 | 11.79058 | 1474 ft | 22 kts | 263° |
| 2026-05-08 12:29 | 48.34735 | 11.78823 | 1476 ft | 25 kts | 263° |
| 2026-05-08 12:29 | 48.34715 | 11.78560 | 1485 ft | 26 kts | 264° |
| 2026-05-08 12:29 | 48.34694 | 11.78289 | 1479 ft | 27 kts | 263° |
| 2026-05-08 12:29 | 48.34672 | 11.78010 | 1485 ft | 27 kts | 263° |
| 2026-05-08 12:30 | 48.34650 | 11.77725 | 1473 ft | 28 kts | 263° |
| 2026-05-08 12:30 | 48.34628 | 11.77432 | 1485 ft | 28 kts | 263° |
| 2026-05-08 12:30 | 48.34605 | 11.77138 | 1483 ft | 29 kts | 263° |
| 2026-05-08 12:30 | 48.34581 | 11.76834 | 1479 ft | 30 kts | 263° |
| 2026-05-08 12:31 | 48.34559 | 11.76528 | 1482 ft | 29 kts | 264° |
| 2026-05-08 12:31 | 48.34535 | 11.76235 | 1481 ft | 28 kts | 264° |
| 2026-05-08 12:31 | 48.34513 | 11.75949 | 1479 ft | 27 kts | 264° |
| 2026-05-08 12:31 | 48.34492 | 11.75669 | 1479 ft | 27 kts | 263° |
| 2026-05-08 12:32 | 48.34473 | 11.75423 | 1485 ft | 20 kts | 264° |
| 2026-05-08 12:32 | 48.34441 | 11.75232 | 1475 ft | 17 kts | 213° |
| 2026-05-08 12:32 | 48.34330 | 11.75233 | 1485 ft | 15 kts | 175° |
| 2026-05-08 12:32 | 48.34235 | 11.75249 | 1481 ft | 13 kts | 173° |
| 2026-05-08 12:33 | 48.34153 | 11.75263 | 1473 ft | 11 kts | 173° |
| 2026-05-08 12:33 | 48.34093 | 11.75276 | 1482 ft | 6 kts | 171° |
| 2026-05-08 12:33 | 48.34086 | 11.75307 | 1475 ft | 3 kts | 90° |
| 2026-05-08 12:33 | 48.34097 | 11.75478 | 1485 ft | 46 kts | 83° |
| 2026-05-08 12:34 | 48.34159 | 11.76282 | 1483 ft | 109 kts | 83° |
| 2026-05-08 12:34 | 48.34267 | 11.77681 | 1474 ft | 158 kts | 83° |
| 2026-05-08 12:34 | 48.34419 | 11.79862 | 2069 ft | 168 kts | 84° |
| 2026-05-08 12:34 | 48.34542 | 11.81679 | 2619 ft | 182 kts | 83° |
| 2026-05-08 12:35 | 48.34690 | 11.83736 | 2881 ft | 206 kts | 82° |
| 2026-05-08 12:35 | 48.34864 | 11.85994 | 3188 ft | 230 kts | 82° |
| 2026-05-08 12:35 | 48.35063 | 11.88460 | 3835 ft | 240 kts | 82° |
| 2026-05-08 12:35 | 48.35273 | 11.90989 | 4632 ft | 246 kts | 82° |
| 2026-05-08 12:36 | 48.35256 | 11.93557 | 5447 ft | 249 kts | 102° |
| 2026-05-08 12:36 | 48.34624 | 11.96060 | 5956 ft | 268 kts | 118° |
| 2026-05-08 12:36 | 48.33778 | 11.98626 | 6659 ft | 278 kts | 116° |
| 2026-05-08 12:36 | 48.32964 | 12.01291 | 7442 ft | 282 kts | 119° |
| 2026-05-08 12:37 | 48.31747 | 12.03581 | 8200 ft | 284 kts | 143° |
| 2026-05-08 12:37 | 48.30154 | 12.05274 | 8979 ft | 286 kts | 148° |
| 2026-05-08 12:37 | 48.28551 | 12.07087 | 9786 ft | 290 kts | 145° |
| 2026-05-08 12:37 | 48.26963 | 12.09012 | 10407 ft | 300 kts | 143° |
| 2026-05-08 12:38 | 48.25292 | 12.11082 | 10634 ft | 323 kts | 143° |
| 2026-05-08 12:38 | 48.24858 | 12.11622 | 10690 ft | 329 kts | 143° |
| 2026-05-08 12:38 | 48.23533 | 12.13281 | 11013 ft | 338 kts | 142° |
| 2026-05-08 12:38 | 48.21717 | 12.15559 | 11650 ft | 344 kts | 142° |
| 2026-05-08 12:39 | 48.19869 | 12.17872 | 12332 ft | 348 kts | 142° |
| 2026-05-08 12:39 | 48.17998 | 12.20201 | 12893 ft | 351 kts | 142° |
| 2026-05-08 12:39 | 48.16111 | 12.22539 | 13431 ft | 354 kts | 142° |
| 2026-05-08 12:39 | 48.14195 | 12.24900 | 13958 ft | 357 kts | 142° |
| 2026-05-08 12:40 | 48.12275 | 12.27260 | 14445 ft | 360 kts | 142° |
| 2026-05-08 12:40 | 48.10329 | 12.29655 | 14927 ft | 363 kts | 142° |
| 2026-05-08 12:40 | 48.08372 | 12.32064 | 15418 ft | 366 kts | 142° |
| 2026-05-08 12:40 | 48.06398 | 12.34486 | 15912 ft | 369 kts | 142° |
| 2026-05-08 12:41 | 48.04420 | 12.36908 | 16418 ft | 372 kts | 142° |
| 2026-05-08 12:41 | 48.02404 | 12.39375 | 16939 ft | 375 kts | 142° |
| 2026-05-08 12:41 | 48.00379 | 12.41849 | 17460 ft | 379 kts | 142° |
| 2026-05-08 12:41 | 47.98326 | 12.44356 | 18005 ft | 382 kts | 142° |
| 2026-05-08 12:42 | 47.96265 | 12.46874 | 18508 ft | 385 kts | 142° |
| 2026-05-08 12:42 | 47.94181 | 12.49414 | 18984 ft | 387 kts | 143° |
| 2026-05-08 12:42 | 47.92044 | 12.52017 | 19476 ft | 390 kts | 143° |
| 2026-05-08 12:42 | 47.89936 | 12.54584 | 19968 ft | 392 kts | 143° |
| 2026-05-08 12:43 | 47.87817 | 12.57163 | 20474 ft | 395 kts | 143° |
| 2026-05-08 12:43 | 47.85683 | 12.59760 | 20976 ft | 397 kts | 143° |
| 2026-05-08 12:43 | 47.83542 | 12.62363 | 21491 ft | 398 kts | 143° |
| 2026-05-08 12:43 | 47.81393 | 12.64967 | 22016 ft | 399 kts | 144° |
| 2026-05-08 12:44 | 47.79265 | 12.67544 | 22548 ft | 400 kts | 144° |
| 2026-05-08 12:44 | 47.77106 | 12.70157 | 23092 ft | 400 kts | 144° |
| 2026-05-08 12:44 | 47.74943 | 12.72768 | 23637 ft | 401 kts | 144° |
| 2026-05-08 12:44 | 47.72775 | 12.75379 | 24108 ft | 401 kts | 144° |
| 2026-05-08 12:45 | 47.70613 | 12.77978 | 24556 ft | 400 kts | 145° |
| 2026-05-08 12:45 | 47.68463 | 12.80599 | 25044 ft | 401 kts | 142° |
| 2026-05-08 12:45 | 47.66463 | 12.83506 | 25529 ft | 401 kts | 139° |
| 2026-05-08 12:45 | 47.64496 | 12.86432 | 26035 ft | 401 kts | 140° |
| 2026-05-08 12:46 | 47.62525 | 12.89354 | 26517 ft | 400 kts | 140° |
| 2026-05-08 12:46 | 47.60586 | 12.92221 | 27027 ft | 399 kts | 141° |
| 2026-05-08 12:46 | 47.58629 | 12.95113 | 27547 ft | 397 kts | 141° |
| 2026-05-08 12:46 | 47.56654 | 12.98031 | 28078 ft | 395 kts | 141° |
| 2026-05-08 12:47 | 47.54710 | 13.00900 | 28626 ft | 393 kts | 142° |
| 2026-05-08 12:47 | 47.52782 | 13.03744 | 29170 ft | 390 kts | 142° |
| 2026-05-08 12:47 | 47.50870 | 13.06559 | 29668 ft | 388 kts | 142° |
| 2026-05-08 12:47 | 47.48929 | 13.09398 | 29813 ft | 397 kts | 142° |
| 2026-05-08 12:48 | 47.46947 | 13.12283 | 29930 ft | 404 kts | 142° |
| 2026-05-08 12:48 | 47.44930 | 13.15223 | 30077 ft | 410 kts | 142° |
| 2026-05-08 12:48 | 47.42882 | 13.18210 | 30209 ft | 417 kts | 142° |
| 2026-05-08 12:48 | 47.40806 | 13.21239 | 30330 ft | 423 kts | 142° |
| 2026-05-08 12:49 | 47.38726 | 13.24277 | 30458 ft | 429 kts | 142° |
| 2026-05-08 12:49 | 47.36562 | 13.27440 | 30581 ft | 436 kts | 141° |
| 2026-05-08 12:49 | 47.34392 | 13.30611 | 30706 ft | 441 kts | 141° |
| 2026-05-08 12:49 | 47.32255 | 13.33920 | 30834 ft | 451 kts | 135° |
| 2026-05-08 12:50 | 47.30246 | 13.37593 | 30952 ft | 457 kts | 135° |
| 2026-05-08 12:50 | 47.28274 | 13.41198 | 31145 ft | 460 kts | 134° |
| 2026-05-08 12:50 | 47.26264 | 13.44859 | 31481 ft | 459 kts | 135° |
| 2026-05-08 12:50 | 47.24250 | 13.48511 | 31771 ft | 459 kts | 135° |
| 2026-05-08 12:51 | 47.22238 | 13.52151 | 32059 ft | 458 kts | 135° |
| 2026-05-08 12:51 | 47.18226 | 13.59401 | 32644 ft | 455 kts | 135° |
| 2026-05-08 12:51 | 47.16264 | 13.62956 | 32863 ft | 454 kts | 134° |
| 2026-05-08 12:52 | 47.14243 | 13.66607 | 33112 ft | 453 kts | 135° |
| 2026-05-08 12:52 | 47.10263 | 13.73758 | 33773 ft | 451 kts | 135° |
| 2026-05-08 12:52 | 47.08277 | 13.77321 | 34101 ft | 450 kts | 136° |
| 2026-05-08 12:53 | 47.06298 | 13.80867 | 34363 ft | 450 kts | 135° |
| 2026-05-08 12:53 | 47.04318 | 13.84412 | 34566 ft | 450 kts | 135° |
| 2026-05-08 12:53 | 47.02329 | 13.87970 | 34785 ft | 451 kts | 135° |
| 2026-05-08 12:53 | 47.00343 | 13.91525 | 34996 ft | 451 kts | 135° |
| 2026-05-08 12:54 | 46.98380 | 13.95037 | 35239 ft | 451 kts | 135° |
| 2026-05-08 12:54 | 46.96393 | 13.98587 | 35453 ft | 451 kts | 135° |
| 2026-05-08 12:54 | 46.94400 | 14.02138 | 35669 ft | 452 kts | 135° |
| 2026-05-08 12:54 | 46.92403 | 14.05690 | 35820 ft | 452 kts | 135° |
| 2026-05-08 12:55 | 46.90403 | 14.09238 | 36037 ft | 452 kts | 135° |
| 2026-05-08 12:55 | 46.88404 | 14.12776 | 36234 ft | 452 kts | 135° |
| 2026-05-08 12:55 | 46.86406 | 14.16310 | 36435 ft | 452 kts | 135° |
| 2026-05-08 12:55 | 46.84400 | 14.19853 | 36616 ft | 452 kts | 134° |
| 2026-05-08 12:56 | 46.82390 | 14.23402 | 36801 ft | 453 kts | 134° |
| 2026-05-08 12:56 | 46.80388 | 14.26935 | 36979 ft | 452 kts | 134° |
| 2026-05-08 12:56 | 46.76400 | 14.33966 | 37092 ft | 453 kts | 134° |
| 2026-05-08 12:57 | 46.72376 | 14.41031 | 37085 ft | 453 kts | 135° |
| 2026-05-08 12:57 | 46.68339 | 14.48090 | 37084 ft | 453 kts | 135° |
| 2026-05-08 12:58 | 46.64300 | 14.55146 | 37078 ft | 453 kts | 135° |
| 2026-05-08 12:58 | 46.60267 | 14.62182 | 37071 ft | 453 kts | 135° |
| 2026-05-08 12:59 | 46.56220 | 14.69208 | 37056 ft | 453 kts | 135° |
| 2026-05-08 12:59 | 46.52182 | 14.76215 | 37041 ft | 452 kts | 135° |
| 2026-05-08 13:00 | 46.48142 | 14.83227 | 37051 ft | 453 kts | 135° |
| 2026-05-08 13:00 | 46.44100 | 14.90248 | 37058 ft | 453 kts | 135° |
| 2026-05-08 13:01 | 46.40076 | 14.97208 | 37057 ft | 453 kts | 135° |
| 2026-05-08 13:01 | 46.36036 | 15.04190 | 37045 ft | 453 kts | 135° |
| 2026-05-08 13:02 | 46.31987 | 15.11169 | 37052 ft | 452 kts | 135° |
| 2026-05-08 13:02 | 46.27941 | 15.18135 | 37059 ft | 452 kts | 135° |
| 2026-05-08 13:03 | 46.23896 | 15.25089 | 37062 ft | 452 kts | 135° |
| 2026-05-08 13:03 | 46.19864 | 15.31979 | 37050 ft | 452 kts | 135° |
| 2026-05-08 13:04 | 46.15800 | 15.38890 | 37057 ft | 453 kts | 135° |
| 2026-05-08 13:04 | 46.11720 | 15.45816 | 37055 ft | 453 kts | 135° |
| 2026-05-08 13:05 | 46.07646 | 15.52733 | 37077 ft | 453 kts | 135° |
| 2026-05-08 13:05 | 46.03574 | 15.59633 | 37086 ft | 452 kts | 135° |
| 2026-05-08 13:06 | 45.99495 | 15.66530 | 37088 ft | 452 kts | 135° |
| 2026-05-08 13:06 | 45.95351 | 15.73294 | 37068 ft | 450 kts | 139° |
| 2026-05-08 13:07 | 45.90953 | 15.79698 | 37071 ft | 449 kts | 141° |
| 2026-05-08 13:07 | 45.86482 | 15.85952 | 37073 ft | 449 kts | 141° |
| 2026-05-08 13:08 | 45.82046 | 15.92261 | 37057 ft | 449 kts | 140° |
| 2026-05-08 13:08 | 45.77677 | 15.98574 | 37087 ft | 449 kts | 140° |
| 2026-05-08 13:09 | 45.73271 | 16.04926 | 37093 ft | 449 kts | 140° |
| 2026-05-08 13:09 | 45.68865 | 16.11252 | 37071 ft | 449 kts | 140° |
| 2026-05-08 13:10 | 45.64449 | 16.17560 | 37070 ft | 449 kts | 140° |
| 2026-05-08 13:10 | 45.60028 | 16.23852 | 37065 ft | 448 kts | 140° |
| 2026-05-08 13:11 | 45.55615 | 16.30140 | 37067 ft | 448 kts | 140° |
| 2026-05-08 13:11 | 45.51195 | 16.36412 | 37073 ft | 448 kts | 140° |
| 2026-05-08 13:12 | 45.46776 | 16.42662 | 37073 ft | 447 kts | 140° |
| 2026-05-08 13:12 | 45.42361 | 16.48895 | 37069 ft | 447 kts | 140° |
| 2026-05-08 13:13 | 45.37967 | 16.55090 | 37067 ft | 447 kts | 140° |
| 2026-05-08 13:13 | 45.33546 | 16.61305 | 37044 ft | 447 kts | 140° |
| 2026-05-08 13:14 | 45.29126 | 16.67505 | 37050 ft | 447 kts | 140° |
| 2026-05-08 13:14 | 45.24703 | 16.73699 | 37053 ft | 446 kts | 140° |
| 2026-05-08 13:15 | 45.20273 | 16.79883 | 37049 ft | 447 kts | 140° |
| 2026-05-08 13:15 | 45.15848 | 16.86061 | 37051 ft | 447 kts | 140° |
| 2026-05-08 13:16 | 45.11414 | 16.92225 | 37057 ft | 447 kts | 140° |
| 2026-05-08 13:16 | 45.06969 | 16.98373 | 37047 ft | 447 kts | 140° |
| 2026-05-08 13:17 | 45.02528 | 17.04514 | 37049 ft | 446 kts | 140° |
| 2026-05-08 13:17 | 44.98091 | 17.10648 | 37048 ft | 446 kts | 140° |
| 2026-05-08 13:18 | 44.93687 | 17.16713 | 37057 ft | 445 kts | 140° |
| 2026-05-08 13:18 | 44.89246 | 17.22810 | 37062 ft | 445 kts | 140° |
| 2026-05-08 13:19 | 44.84823 | 17.28873 | 37061 ft | 445 kts | 140° |
| 2026-05-08 13:19 | 44.80381 | 17.34946 | 37046 ft | 445 kts | 140° |
| 2026-05-08 13:20 | 44.75943 | 17.41009 | 37053 ft | 445 kts | 140° |
| 2026-05-08 13:20 | 44.71502 | 17.47072 | 37056 ft | 444 kts | 140° |
| 2026-05-08 13:21 | 44.67055 | 17.53106 | 37057 ft | 444 kts | 141° |
| 2026-05-08 13:21 | 44.62611 | 17.59129 | 37056 ft | 444 kts | 140° |
| 2026-05-08 13:22 | 44.58197 | 17.65103 | 37039 ft | 443 kts | 140° |
| 2026-05-08 13:22 | 44.53752 | 17.71096 | 37055 ft | 443 kts | 140° |
| 2026-05-08 13:23 | 44.49308 | 17.77070 | 37058 ft | 442 kts | 140° |
| 2026-05-08 13:23 | 44.45621 | 17.82022 | 37056 ft | 442 kts | 140° |
| 2026-05-08 13:24 | 44.41180 | 17.87981 | 37045 ft | 442 kts | 140° |
| 2026-05-08 13:24 | 44.36737 | 17.93935 | 37047 ft | 442 kts | 140° |
| 2026-05-08 13:25 | 44.32303 | 17.99868 | 37044 ft | 442 kts | 140° |
| 2026-05-08 13:25 | 44.27854 | 18.05788 | 37043 ft | 442 kts | 140° |
| 2026-05-08 13:26 | 44.23439 | 18.11657 | 37042 ft | 442 kts | 140° |
| 2026-05-08 13:26 | 44.18987 | 18.17563 | 37036 ft | 442 kts | 140° |
| 2026-05-08 13:27 | 44.14532 | 18.23456 | 37038 ft | 441 kts | 140° |
| 2026-05-08 13:27 | 44.10076 | 18.29335 | 37039 ft | 441 kts | 140° |
| 2026-05-08 13:28 | 44.05643 | 18.35168 | 37038 ft | 442 kts | 140° |
| 2026-05-08 13:28 | 44.01153 | 18.41078 | 37038 ft | 442 kts | 140° |
| 2026-05-08 13:29 | 43.96681 | 18.46946 | 37037 ft | 442 kts | 140° |
| 2026-05-08 13:29 | 43.92207 | 18.52804 | 37039 ft | 442 kts | 140° |
| 2026-05-08 13:30 | 43.87736 | 18.58648 | 37041 ft | 442 kts | 140° |
| 2026-05-08 13:30 | 43.83249 | 18.64499 | 37026 ft | 442 kts | 140° |
| 2026-05-08 13:31 | 43.78770 | 18.70330 | 37016 ft | 442 kts | 140° |
| 2026-05-08 13:31 | 43.74280 | 18.76151 | 37001 ft | 442 kts | 141° |
| 2026-05-08 13:32 | 43.69813 | 18.81925 | 37008 ft | 442 kts | 141° |
| 2026-05-08 13:32 | 43.65317 | 18.87724 | 37005 ft | 442 kts | 141° |
| 2026-05-08 13:33 | 43.60825 | 18.93529 | 36987 ft | 442 kts | 140° |
| 2026-05-08 13:33 | 43.56295 | 18.99355 | 36983 ft | 442 kts | 140° |
| 2026-05-08 13:34 | 43.51782 | 19.05145 | 36980 ft | 443 kts | 140° |
| 2026-05-08 13:34 | 43.47266 | 19.10937 | 36985 ft | 444 kts | 140° |
| 2026-05-08 13:35 | 43.42743 | 19.16711 | 36974 ft | 444 kts | 141° |
| 2026-05-08 13:35 | 43.38217 | 19.22478 | 36982 ft | 444 kts | 141° |
| 2026-05-08 13:36 | 43.33683 | 19.28260 | 36962 ft | 445 kts | 140° |
| 2026-05-08 13:36 | 43.29150 | 19.34032 | 36972 ft | 445 kts | 140° |
| 2026-05-08 13:37 | 43.24598 | 19.39806 | 36980 ft | 446 kts | 141° |
| 2026-05-08 13:37 | 43.20031 | 19.45571 | 36978 ft | 446 kts | 141° |
| 2026-05-08 13:38 | 43.15492 | 19.51300 | 36971 ft | 446 kts | 141° |
| 2026-05-08 13:38 | 43.10928 | 19.57052 | 36975 ft | 447 kts | 141° |
| 2026-05-08 13:39 | 43.06341 | 19.62806 | 36985 ft | 447 kts | 141° |
| 2026-05-08 13:39 | 43.01762 | 19.68550 | 36989 ft | 447 kts | 141° |
| 2026-05-08 13:40 | 42.97176 | 19.74286 | 36992 ft | 447 kts | 141° |
| 2026-05-08 13:40 | 42.92623 | 19.79980 | 36993 ft | 447 kts | 141° |
| 2026-05-08 13:41 | 42.88039 | 19.85702 | 36997 ft | 447 kts | 141° |
| 2026-05-08 13:41 | 42.83444 | 19.91416 | 36995 ft | 447 kts | 141° |
| 2026-05-08 13:42 | 42.78836 | 19.97132 | 37010 ft | 448 kts | 141° |
| 2026-05-08 13:42 | 42.74306 | 20.02946 | 37011 ft | 450 kts | 134° |
| 2026-05-08 13:43 | 42.70306 | 20.09537 | 37028 ft | 452 kts | 132° |
| 2026-05-08 13:43 | 42.66341 | 20.16088 | 37014 ft | 452 kts | 133° |
| 2026-05-08 13:44 | 42.62343 | 20.22669 | 37026 ft | 452 kts | 133° |
| 2026-05-08 13:44 | 42.58337 | 20.29247 | 37017 ft | 452 kts | 133° |
| 2026-05-08 13:45 | 42.54313 | 20.35833 | 37032 ft | 453 kts | 133° |
| 2026-05-08 13:45 | 42.50297 | 20.42406 | 37035 ft | 453 kts | 133° |
| 2026-05-08 13:46 | 42.46278 | 20.48982 | 37024 ft | 453 kts | 133° |
| 2026-05-08 13:46 | 42.42226 | 20.55588 | 37024 ft | 453 kts | 133° |
| 2026-05-08 13:47 | 42.38211 | 20.62098 | 37041 ft | 453 kts | 133° |
| 2026-05-08 13:47 | 42.34171 | 20.68631 | 37048 ft | 453 kts | 133° |
| 2026-05-08 13:48 | 42.30128 | 20.75170 | 37039 ft | 453 kts | 133° |
| 2026-05-08 13:48 | 42.26089 | 20.81713 | 37031 ft | 454 kts | 133° |
| 2026-05-08 13:49 | 42.22040 | 20.88251 | 37029 ft | 454 kts | 133° |
| 2026-05-08 13:49 | 42.17980 | 20.94768 | 37032 ft | 454 kts | 133° |
| 2026-05-08 13:50 | 42.13922 | 21.01292 | 37033 ft | 454 kts | 133° |
| 2026-05-08 13:50 | 42.09697 | 21.07560 | 37025 ft | 450 kts | 140° |
| 2026-05-08 13:51 | 42.05146 | 21.13338 | 37036 ft | 450 kts | 140° |
| 2026-05-08 13:51 | 42.00523 | 21.18917 | 37003 ft | 447 kts | 150° |
| 2026-05-08 13:52 | 41.97772 | 21.20736 | 37003 ft | 438 kts | 167° |
| 2026-05-08 13:52 | 41.94803 | 21.21355 | 36992 ft | 429 kts | 185° |
| 2026-05-08 13:52 | 41.88988 | 21.20005 | 36998 ft | 424 kts | 195° |
| 2026-05-08 13:53 | 41.83173 | 21.18234 | 36989 ft | 426 kts | 195° |
| 2026-05-08 13:53 | 41.77378 | 21.16489 | 36982 ft | 427 kts | 195° |
| 2026-05-08 13:54 | 41.74438 | 21.15877 | 36994 ft | 432 kts | 183° |
| 2026-05-08 13:54 | 41.71445 | 21.16361 | 36848 ft | 439 kts | 168° |
| 2026-05-08 13:54 | 41.68498 | 21.17522 | 36667 ft | 441 kts | 166° |
| 2026-05-08 13:54 | 41.65564 | 21.18759 | 36489 ft | 442 kts | 165° |
| 2026-05-08 13:55 | 41.62624 | 21.19997 | 36304 ft | 442 kts | 165° |
| 2026-05-08 13:55 | 41.59666 | 21.21235 | 36125 ft | 442 kts | 165° |
| 2026-05-08 13:55 | 41.53796 | 21.23664 | 35782 ft | 441 kts | 165° |
| 2026-05-08 13:56 | 41.50855 | 21.24864 | 35605 ft | 441 kts | 165° |
| 2026-05-08 13:56 | 41.47918 | 21.26050 | 35433 ft | 440 kts | 165° |
| 2026-05-08 13:56 | 41.45024 | 21.27265 | 35264 ft | 438 kts | 160° |
| 2026-05-08 13:56 | 41.42345 | 21.29225 | 35094 ft | 439 kts | 144° |
| 2026-05-08 13:57 | 41.40172 | 21.32077 | 34924 ft | 440 kts | 127° |
| 2026-05-08 13:57 | 41.38686 | 21.35634 | 34757 ft | 440 kts | 111° |
| 2026-05-08 13:57 | 41.37718 | 21.39495 | 34594 ft | 439 kts | 109° |
| 2026-05-08 13:57 | 41.36768 | 21.43344 | 34428 ft | 437 kts | 109° |
| 2026-05-08 13:58 | 41.35814 | 21.47177 | 34265 ft | 435 kts | 109° |
| 2026-05-08 13:58 | 41.34863 | 21.50979 | 34104 ft | 432 kts | 109° |
| 2026-05-08 13:58 | 41.33914 | 21.54759 | 33927 ft | 430 kts | 109° |
| 2026-05-08 13:58 | 41.32968 | 21.58528 | 33736 ft | 428 kts | 109° |
| 2026-05-08 13:59 | 41.32035 | 21.62246 | 33553 ft | 427 kts | 109° |
| 2026-05-08 13:59 | 41.31089 | 21.66017 | 33355 ft | 426 kts | 109° |
| 2026-05-08 13:59 | 41.30153 | 21.69739 | 33168 ft | 425 kts | 109° |
| 2026-05-08 13:59 | 41.29212 | 21.73467 | 32990 ft | 423 kts | 109° |
| 2026-05-08 14:00 | 41.28274 | 21.77170 | 33012 ft | 424 kts | 109° |
| 2026-05-08 14:00 | 41.26384 | 21.84628 | 33032 ft | 430 kts | 109° |
| 2026-05-08 14:01 | 41.24468 | 21.92154 | 33030 ft | 430 kts | 109° |
| 2026-05-08 14:01 | 41.22551 | 21.99686 | 33021 ft | 430 kts | 109° |
| 2026-05-08 14:02 | 41.20631 | 22.07206 | 33030 ft | 430 kts | 109° |
| 2026-05-08 14:02 | 41.18622 | 22.14679 | 33015 ft | 430 kts | 118° |
| 2026-05-08 14:02 | 41.16973 | 22.17974 | 33025 ft | 431 kts | 134° |
| 2026-05-08 14:03 | 41.14790 | 22.20700 | 33031 ft | 431 kts | 140° |
| 2026-05-08 14:03 | 41.10160 | 22.26045 | 33043 ft | 433 kts | 141° |
| 2026-05-08 14:04 | 41.05720 | 22.31097 | 33037 ft | 432 kts | 141° |
| 2026-05-08 14:04 | 41.01119 | 22.36339 | 33038 ft | 432 kts | 141° |
| 2026-05-08 14:05 | 40.96617 | 22.41486 | 33043 ft | 430 kts | 141° |
| 2026-05-08 14:05 | 40.92082 | 22.46667 | 33030 ft | 430 kts | 142° |
| 2026-05-08 14:06 | 40.87540 | 22.51837 | 33042 ft | 432 kts | 142° |
| 2026-05-08 14:06 | 40.83018 | 22.56980 | 33045 ft | 432 kts | 142° |
| 2026-05-08 14:07 | 40.78468 | 22.62156 | 33047 ft | 432 kts | 142° |
| 2026-05-08 14:07 | 40.73913 | 22.67326 | 33052 ft | 432 kts | 142° |
| 2026-05-08 14:08 | 40.69339 | 22.72491 | 33066 ft | 435 kts | 142° |
| 2026-05-08 14:08 | 40.64772 | 22.77638 | 33071 ft | 435 kts | 142° |
| 2026-05-08 14:09 | 40.60169 | 22.82829 | 33078 ft | 437 kts | 143° |
| 2026-05-08 14:09 | 40.55542 | 22.88036 | 32538 ft | 436 kts | 143° |
| 2026-05-08 14:09 | 40.53268 | 22.90596 | 32002 ft | 433 kts | 143° |
| 2026-05-08 14:10 | 40.50987 | 22.93163 | 31484 ft | 431 kts | 143° |
| 2026-05-08 14:10 | 40.48711 | 22.95717 | 30964 ft | 428 kts | 143° |
| 2026-05-08 14:10 | 40.46392 | 22.98131 | 30462 ft | 423 kts | 150° |
| 2026-05-08 14:10 | 40.43842 | 22.99993 | 29940 ft | 415 kts | 160° |
| 2026-05-08 14:11 | 40.41170 | 23.01345 | 29450 ft | 409 kts | 163° |
| 2026-05-08 14:11 | 40.38524 | 23.02648 | 28988 ft | 405 kts | 163° |
| 2026-05-08 14:11 | 40.35902 | 23.03953 | 28526 ft | 400 kts | 163° |
| 2026-05-08 14:11 | 40.33318 | 23.05246 | 28086 ft | 395 kts | 163° |
| 2026-05-08 14:12 | 40.30770 | 23.06522 | 27645 ft | 391 kts | 163° |
| 2026-05-08 14:12 | 40.28233 | 23.07790 | 27214 ft | 388 kts | 163° |
| 2026-05-08 14:12 | 40.25723 | 23.09042 | 26791 ft | 384 kts | 163° |
| 2026-05-08 14:12 | 40.23242 | 23.10277 | 26362 ft | 380 kts | 164° |
| 2026-05-08 14:13 | 40.20817 | 23.11486 | 25942 ft | 375 kts | 166° |
| 2026-05-08 14:13 | 40.18391 | 23.12692 | 25533 ft | 372 kts | 166° |
| 2026-05-08 14:13 | 40.15978 | 23.13887 | 25094 ft | 369 kts | 166° |
| 2026-05-08 14:13 | 40.13582 | 23.15068 | 24668 ft | 367 kts | 166° |
| 2026-05-08 14:14 | 40.11202 | 23.16236 | 24221 ft | 365 kts | 166° |
| 2026-05-08 14:14 | 40.08829 | 23.17400 | 23785 ft | 363 kts | 166° |
| 2026-05-08 14:14 | 40.06470 | 23.18557 | 23300 ft | 362 kts | 165° |
| 2026-05-08 14:14 | 40.04126 | 23.19712 | 22852 ft | 359 kts | 165° |
| 2026-05-08 14:15 | 40.01801 | 23.20862 | 22412 ft | 356 kts | 165° |
| 2026-05-08 14:15 | 39.99492 | 23.22005 | 21986 ft | 354 kts | 166° |
| 2026-05-08 14:15 | 39.97965 | 23.22759 | 21693 ft | 353 kts | 166° |
| 2026-05-08 14:15 | 39.95677 | 23.23887 | 21276 ft | 351 kts | 166° |
| 2026-05-08 14:16 | 39.93400 | 23.25008 | 20872 ft | 349 kts | 166° |
| 2026-05-08 14:16 | 39.91139 | 23.26119 | 20457 ft | 347 kts | 166° |
| 2026-05-08 14:16 | 39.88171 | 23.27538 | 20059 ft | 338 kts | 167° |
| 2026-05-08 14:16 | 39.86670 | 23.28258 | 19665 ft | 342 kts | 166° |
| 2026-05-08 14:17 | 39.84439 | 23.29349 | 19235 ft | 342 kts | 166° |
| 2026-05-08 14:17 | 39.82219 | 23.30448 | 18841 ft | 341 kts | 165° |
| 2026-05-08 14:17 | 39.80000 | 23.31550 | 18448 ft | 341 kts | 165° |
| 2026-05-08 14:17 | 39.77816 | 23.32633 | 17992 ft | 340 kts | 166° |
| 2026-05-08 14:18 | 39.75611 | 23.33722 | 17608 ft | 338 kts | 166° |
| 2026-05-08 14:18 | 39.73424 | 23.34800 | 17226 ft | 336 kts | 166° |
| 2026-05-08 14:18 | 39.71243 | 23.35867 | 16831 ft | 334 kts | 166° |
| 2026-05-08 14:18 | 39.69072 | 23.36926 | 16454 ft | 333 kts | 166° |
| 2026-05-08 14:19 | 39.66908 | 23.37979 | 16063 ft | 332 kts | 166° |
| 2026-05-08 14:19 | 39.64751 | 23.39028 | 15697 ft | 331 kts | 166° |
| 2026-05-08 14:19 | 39.62593 | 23.40077 | 15322 ft | 330 kts | 166° |
| 2026-05-08 14:19 | 39.60441 | 23.41122 | 14944 ft | 330 kts | 166° |
| 2026-05-08 14:20 | 39.58295 | 23.42163 | 14571 ft | 329 kts | 166° |
| 2026-05-08 14:20 | 39.56148 | 23.43204 | 14178 ft | 329 kts | 166° |
| 2026-05-08 14:20 | 39.54019 | 23.44234 | 13651 ft | 333 kts | 166° |
| 2026-05-08 14:20 | 39.51842 | 23.45285 | 13137 ft | 335 kts | 166° |
| 2026-05-08 14:21 | 39.49654 | 23.46343 | 12611 ft | 335 kts | 166° |
| 2026-05-08 14:21 | 39.49324 | 23.46503 | 12532 ft | 333 kts | 166° |
| 2026-05-08 14:21 | 39.48137 | 23.47080 | 12258 ft | 327 kts | 166° |
| 2026-05-08 14:21 | 39.46040 | 23.48104 | 11762 ft | 317 kts | 166° |
| 2026-05-08 14:22 | 39.43995 | 23.49099 | 11257 ft | 311 kts | 167° |
| 2026-05-08 14:22 | 39.41997 | 23.50068 | 10798 ft | 308 kts | 167° |
| 2026-05-08 14:22 | 39.39976 | 23.51045 | 10309 ft | 306 kts | 167° |
| 2026-05-08 14:22 | 39.37999 | 23.51998 | 9830 ft | 302 kts | 167° |
| 2026-05-08 14:23 | 39.36043 | 23.52941 | 9313 ft | 297 kts | 166° |
| 2026-05-08 14:23 | 39.34129 | 23.53866 | 8798 ft | 290 kts | 166° |
| 2026-05-08 14:23 | 39.32274 | 23.54763 | 8306 ft | 287 kts | 166° |
| 2026-05-08 14:23 | 39.30417 | 23.55657 | 7801 ft | 284 kts | 165° |
| 2026-05-08 14:24 | 39.28571 | 23.56545 | 7350 ft | 282 kts | 165° |
| 2026-05-08 14:24 | 39.26743 | 23.57421 | 6923 ft | 279 kts | 165° |
| 2026-05-08 14:24 | 39.24932 | 23.58288 | 6478 ft | 276 kts | 164° |
| 2026-05-08 14:24 | 39.23146 | 23.59146 | 6036 ft | 273 kts | 164° |
| 2026-05-08 14:25 | 39.21377 | 23.59997 | 5580 ft | 270 kts | 163° |
| 2026-05-08 14:25 | 39.19626 | 23.60752 | 5136 ft | 260 kts | 172° |
| 2026-05-08 14:25 | 39.17877 | 23.60887 | 4687 ft | 248 kts | 188° |
| 2026-05-08 14:25 | 39.16238 | 23.60379 | 4235 ft | 239 kts | 203° |
| 2026-05-08 14:26 | 39.14769 | 23.59443 | 3794 ft | 232 kts | 207° |
| 2026-05-08 14:26 | 39.13347 | 23.58506 | 3339 ft | 227 kts | 206° |
| 2026-05-08 14:26 | 39.11971 | 23.57590 | 2895 ft | 224 kts | 206° |
| 2026-05-08 14:26 | 39.10594 | 23.56650 | 2445 ft | 226 kts | 206° |
| 2026-05-08 14:27 | 39.09209 | 23.55636 | 2037 ft | 231 kts | 216° |
| 2026-05-08 14:27 | 39.08065 | 23.54256 | 1873 ft | 219 kts | 225° |
| 2026-05-08 14:27 | 39.07153 | 23.52744 | 1736 ft | 210 kts | 239° |
| 2026-05-08 14:27 | 39.06647 | 23.51037 | 1866 ft | 204 kts | 258° |
| 2026-05-08 14:28 | 39.06691 | 23.49229 | 2051 ft | 205 kts | 290° |
| 2026-05-08 14:28 | 39.07510 | 23.47758 | 1914 ft | 199 kts | 327° |
| 2026-05-08 14:28 | 39.08717 | 23.47164 | 1744 ft | 180 kts | 355° |
| 2026-05-08 14:28 | 39.09916 | 23.47123 | 1548 ft | 166 kts | 6° |
| 2026-05-08 14:29 | 39.11010 | 23.47284 | 1389 ft | 151 kts | 14° |
| 2026-05-08 14:29 | 39.11999 | 23.47597 | 1201 ft | 146 kts | 22° |
| 2026-05-08 14:29 | 39.12954 | 23.48074 | 993 ft | 148 kts | 28° |
| 2026-05-08 14:29 | 39.13867 | 23.48605 | 789 ft | 141 kts | 23° |
| 2026-05-08 14:30 | 39.14791 | 23.49053 | 544 ft | 143 kts | 20° |
| 2026-05-08 14:30 | 39.15711 | 23.49448 | 366 ft | 139 kts | 22° |
| 2026-05-08 14:30 | 39.16631 | 23.49871 | 136 ft | 136 kts | 20° |
| 2026-05-08 14:30 | 39.17478 | 23.50265 | 40 ft | 115 kts | 18° |
| 2026-05-08 14:31 | 39.17954 | 23.50474 | 44 ft | 42 kts | 20° |
| 2026-05-08 14:31 | 39.18173 | 23.50575 | 53 ft | 27 kts | 19° |
| 2026-05-08 14:31 | 39.18305 | 23.50634 | 51 ft | 19 kts | 19° |
| 2026-05-08 14:32 | 39.18396 | 23.50672 | 53 ft | 2 kts | 248° |
| 2026-05-08 14:32 | 39.18350 | 23.50651 | 56 ft | 10 kts | 198° |
| 2026-05-08 14:32 | 39.18264 | 23.50614 | 57 ft | 18 kts | 199° |
| 2026-05-08 14:32 | 39.18164 | 23.50569 | 53 ft | 12 kts | 199° |
| 2026-05-08 14:33 | 39.18104 | 23.50542 | 50 ft | 7 kts | 199° |
| 2026-05-08 14:33 | 39.18050 | 23.50518 | 48 ft | 9 kts | 199° |
| 2026-05-08 14:33 | 39.17989 | 23.50491 | 46 ft | 10 kts | 199° |
| 2026-05-08 14:33 | 39.17939 | 23.50435 | 42 ft | 6 kts | 243° |
| 2026-05-08 14:34 | 39.17934 | 23.50383 | 42 ft | 5 kts | 288° |
| 2026-05-08 14:34 | 39.17965 | 23.50357 | 40 ft | 6 kts | 316° |
| 2026-05-08 14:34 | 39.17981 | 23.50302 | 37 ft | 6 kts | 289° |
| 2026-05-08 14:34 | 39.17988 | 23.50278 | 39 ft | 1 kts | 289° |
| 2026-05-08 14:35 | 39.17989 | 23.50273 | 39 ft | 0 kts | 289° |
| 2026-05-08 14:35 | 39.17989 | 23.50272 | 39 ft | 0 kts | 289° |